Time;durP1;ratioP1;P1;durP2;ratioP2;P2;SDS_P1;SDS_P2;PMS_P1;PMS_P2;Temp;Humidity;BMP_temperature;BMP_pressure;BME280_temperature;BME280_humidity;BME280_pressure;Samples;Min_cycle;Max_cycle;Signal;HPM_P1;HPM_P2
2022/01/05 00:01:00;;;;;;;17.05;2.35;;;2.40;99.90;;;;;;4910367;29;20122;-47
2022/01/05 00:03:29;;;;;;;11.00;2.83;;;2.50;99.90;;;;;;4943919;28;20130;-47
2022/01/05 00:05:54;;;;;;;20.27;3.40;;;2.50;99.90;;;;;;4944652;28;20126;-48
2022/01/05 00:08:24;;;;;;;12.20;2.33;;;2.50;99.90;;;;;;4944301;28;20070;-47
2022/01/05 00:10:54;;;;;;;11.15;2.28;;;2.50;99.90;;;;;;4942658;28;20058;-47
2022/01/05 00:13:20;;;;;;;16.33;4.35;;;2.50;99.90;;;;;;4910455;29;20066;-48
2022/01/05 00:15:46;;;;;;;9.10;3.78;;;2.50;99.90;;;;;;4944768;28;20047;-48
2022/01/05 00:18:12;;;;;;;14.35;3.33;;;2.60;99.90;;;;;;4945164;28;20538;-47
2022/01/05 00:20:38;;;;;;;12.82;3.65;;;2.60;99.90;;;;;;4945994;28;20763;-48
2022/01/05 00:23:03;;;;;;;22.10;4.07;;;2.60;99.90;;;;;;4927409;29;20098;-49
2022/01/05 00:25:29;;;;;;;17.63;4.43;;;2.60;99.90;;;;;;4950314;28;20059;-47
2022/01/05 00:27:55;;;;;;;9.93;3.33;;;2.60;99.90;;;;;;4949290;28;20055;-47
2022/01/05 00:30:22;;;;;;;18.40;4.22;;;2.50;99.90;;;;;;4944791;28;20047;-48
2022/01/05 00:32:48;;;;;;;17.20;2.78;;;2.50;99.90;;;;;;4914844;29;20505;-47
2022/01/05 00:35:14;;;;;;;17.77;3.58;;;2.50;99.90;;;;;;4932383;29;20071;-47
2022/01/05 00:37:39;;;;;;;13.35;3.30;;;2.50;99.90;;;;;;4910150;29;20082;-48
2022/01/05 00:40:07;;;;;;;13.32;3.50;;;2.50;99.90;;;;;;4943853;29;20047;-48
2022/01/05 00:42:33;;;;;;;14.98;2.60;;;2.50;99.90;;;;;;4944120;29;20050;-49
2022/01/05 00:44:59;;;;;;;11.65;2.40;;;2.50;99.90;;;;;;4944823;29;20047;-48
2022/01/05 00:47:25;;;;;;;11.90;4.03;;;2.50;99.90;;;;;;4927555;29;20055;-47
2022/01/05 00:49:50;;;;;;;14.65;3.38;;;2.50;99.90;;;;;;4944645;29;20475;-49
2022/01/05 00:52:16;;;;;;;9.65;2.40;;;2.50;99.90;;;;;;4945250;29;20406;-47
2022/01/05 00:54:42;;;;;;;16.90;3.08;;;2.60;99.90;;;;;;4927605;29;20055;-49
2022/01/05 00:57:08;;;;;;;11.98;2.65;;;2.50;99.90;;;;;;4944523;29;20127;-47
2022/01/05 00:59:34;;;;;;;12.02;2.83;;;2.50;99.90;;;;;;4925632;29;20043;-47
2022/01/05 01:01:59;;;;;;;16.48;3.15;;;2.50;99.90;;;;;;4942561;29;20051;-47
2022/01/05 01:04:25;;;;;;;13.55;3.08;;;2.50;99.90;;;;;;4926709;29;20055;-47
2022/01/05 01:06:51;;;;;;;12.63;2.33;;;2.40;99.90;;;;;;4943742;28;20489;-47
2022/01/05 01:09:17;;;;;;;9.63;2.17;;;2.50;99.90;;;;;;4942786;28;20051;-47
2022/01/05 01:11:43;;;;;;;17.55;3.08;;;2.50;99.90;;;;;;4926659;28;20704;-49
2022/01/05 01:14:10;;;;;;;13.60;3.03;;;2.50;99.90;;;;;;4943341;28;20059;-47
2022/01/05 01:16:36;;;;;;;14.80;2.67;;;2.50;99.90;;;;;;4944355;28;20062;-49
2022/01/05 01:19:02;;;;;;;13.48;3.25;;;2.50;99.90;;;;;;4925879;29;20051;-47
2022/01/05 01:21:28;;;;;;;23.52;4.47;;;2.50;99.90;;;;;;4927274;29;20569;-48
2022/01/05 01:23:55;;;;;;;17.42;4.38;;;2.60;99.90;;;;;;4947365;28;20043;-48
2022/01/05 01:26:27;;;;;;;13.80;3.80;;;2.50;99.90;;;;;;4932568;29;20055;-48
2022/01/05 01:28:54;;;;;;;12.52;2.95;;;2.60;99.90;;;;;;4941186;28;20161;-47
2022/01/05 01:31:20;;;;;;;19.75;3.03;;;2.70;99.90;;;;;;4947608;28;20142;-47
2022/01/05 01:33:46;;;;;;;19.92;3.85;;;2.70;99.90;;;;;;4929907;28;20421;-48
2022/01/05 01:36:12;;;;;;;15.05;3.10;;;2.80;99.90;;;;;;4947879;29;20158;-49
2022/01/05 01:38:38;;;;;;;16.08;3.05;;;2.80;99.90;;;;;;4947296;29;20090;-50
2022/01/05 01:41:04;;;;;;;17.77;3.35;;;2.80;99.90;;;;;;4946654;28;20090;-48
2022/01/05 01:43:30;;;;;;;18.45;3.05;;;2.70;99.90;;;;;;4946905;29;20129;-47
2022/01/05 01:45:56;;;;;;;12.07;2.90;;;2.70;99.90;;;;;;4947381;28;20154;-48
2022/01/05 01:48:22;;;;;;;11.63;2.78;;;2.70;99.90;;;;;;4947785;28;20051;-48
2022/01/05 01:50:47;;;;;;;10.90;2.60;;;2.70;99.90;;;;;;4947305;28;20047;-47
2022/01/05 01:53:13;;;;;;;17.83;3.50;;;2.60;99.90;;;;;;4929594;29;20059;-47
2022/01/05 01:55:40;;;;;;;18.65;4.43;;;2.60;99.90;;;;;;4947344;28;20063;-48
2022/01/05 01:58:06;;;;;;;11.65;3.45;;;2.60;99.90;;;;;;4946922;28;20141;-47
2022/01/05 02:00:32;;;;;;;19.63;4.60;;;2.70;99.90;;;;;;4945644;28;20100;-52
2022/01/05 02:02:58;;;;;;;18.33;3.63;;;2.80;99.90;;;;;;4946691;28;20039;-47
2022/01/05 02:05:24;;;;;;;18.35;2.90;;;2.80;99.90;;;;;;4946437;28;20055;-47
2022/01/05 02:07:55;;;;;;;22.75;4.88;;;2.90;99.90;;;;;;4947700;29;20058;-49
2022/01/05 02:10:20;;;;;;;19.45;3.25;;;2.90;99.90;;;;;;4946798;28;20067;-47
2022/01/05 02:12:47;;;;;;;13.82;3.45;;;2.90;99.90;;;;;;4946579;28;20089;-49
2022/01/05 02:15:13;;;;;;;17.55;3.10;;;2.90;99.90;;;;;;4946458;28;20066;-49
2022/01/05 02:17:54;;;;;;;17.35;3.83;;;3.00;99.90;;;;;;4928493;29;20059;-47
2022/01/05 02:20:23;;;;;;;19.33;4.43;;;3.10;99.90;;;;;;4928958;28;20067;-48
2022/01/05 02:22:49;;;;;;;20.20;3.63;;;3.20;99.90;;;;;;4946135;28;20051;-48
2022/01/05 02:25:15;;;;;;;16.50;4.43;;;3.20;99.90;;;;;;4940578;29;20059;-47
2022/01/05 02:27:46;;;;;;;13.32;2.72;;;3.20;99.90;;;;;;4929032;29;20051;-49
2022/01/05 02:30:19;;;;;;;14.23;3.38;;;3.30;99.90;;;;;;4946525;28;20051;-49
2022/01/05 02:32:45;;;;;;;15.65;3.58;;;3.20;99.90;;;;;;4918184;28;20062;-49
2022/01/05 02:35:11;;;;;;;16.85;3.40;;;3.20;99.90;;;;;;4936238;29;20047;-48
2022/01/05 02:37:46;;;;;;;16.02;4.07;;;3.20;99.90;;;;;;4949399;28;20050;-48
2022/01/05 02:40:14;;;;;;;17.15;3.30;;;3.20;99.90;;;;;;4936008;28;20078;-54
2022/01/05 02:42:40;;;;;;;16.85;3.00;;;3.20;99.90;;;;;;4944635;28;20051;-47
2022/01/05 02:45:07;;;;;;;13.57;2.83;;;3.20;99.90;;;;;;4946465;28;20047;-47
2022/01/05 02:47:33;;;;;;;15.13;2.63;;;3.20;99.90;;;;;;4945609;28;20114;-47
2022/01/05 02:50:00;;;;;;;17.88;4.40;;;3.30;99.90;;;;;;4946878;28;20489;-48
2022/01/05 02:52:26;;;;;;;14.68;2.35;;;3.40;99.90;;;;;;4928571;28;20059;-47
2022/01/05 02:54:52;;;;;;;16.50;3.17;;;3.40;99.90;;;;;;4945977;29;20054;-48
2022/01/05 02:57:18;;;;;;;14.63;2.97;;;3.40;99.90;;;;;;4927587;28;20055;-47
2022/01/05 02:59:44;;;;;;;12.45;3.10;;;3.50;99.90;;;;;;4944603;28;20050;-48
2022/01/05 03:02:09;;;;;;;15.63;4.40;;;3.50;99.90;;;;;;4944481;28;20050;-48
2022/01/05 03:04:35;;;;;;;18.98;2.80;;;3.60;99.90;;;;;;4945076;28;20055;-48
2022/01/05 03:07:01;;;;;;;15.73;3.75;;;3.60;99.90;;;;;;4945315;28;20205;-48
2022/01/05 03:09:27;;;;;;;11.57;3.45;;;3.60;99.90;;;;;;4945989;28;20059;-48
2022/01/05 03:11:53;;;;;;;16.08;3.78;;;3.60;99.90;;;;;;4927873;28;20291;-51
2022/01/05 03:14:20;;;;;;;22.75;4.38;;;3.60;99.90;;;;;;4945443;28;20489;-47
2022/01/05 03:16:46;;;;;;;19.88;3.45;;;3.60;99.90;;;;;;4945325;28;20157;-47
2022/01/05 03:19:12;;;;;;;18.13;3.15;;;3.50;99.90;;;;;;4944680;28;20051;-48
2022/01/05 03:21:38;;;;;;;18.15;2.97;;;3.50;99.90;;;;;;4950262;28;20450;-51
2022/01/05 03:24:04;;;;;;;18.50;3.03;;;3.50;99.90;;;;;;4944950;28;20102;-48
2022/01/05 03:26:30;;;;;;;20.08;3.65;;;3.50;99.90;;;;;;4944407;28;20059;-47
2022/01/05 03:28:56;;;;;;;12.43;2.80;;;3.50;99.90;;;;;;4945195;28;20467;-48
2022/01/05 03:31:22;;;;;;;17.38;3.17;;;3.50;99.90;;;;;;4927800;29;20410;-48
2022/01/05 03:33:47;;;;;;;13.25;2.25;;;3.60;99.90;;;;;;4947010;28;20039;-48
2022/01/05 03:36:14;;;;;;;9.93;2.20;;;3.70;99.90;;;;;;4930456;29;20063;-47
2022/01/05 03:38:40;;;;;;;13.55;3.85;;;3.70;99.90;;;;;;4927521;29;20114;-50
2022/01/05 03:41:06;;;;;;;9.65;2.17;;;3.70;99.90;;;;;;4944391;29;20498;-48
2022/01/05 03:43:31;;;;;;;12.30;2.40;;;3.70;99.90;;;;;;4946817;28;20498;-48
2022/01/05 03:45:57;;;;;;;9.85;2.63;;;3.70;99.90;;;;;;4948352;29;20051;-47
2022/01/05 03:48:23;;;;;;;9.43;1.92;;;3.70;99.90;;;;;;4945116;29;20059;-49
2022/01/05 03:50:49;;;;;;;14.45;2.72;;;3.60;99.90;;;;;;4927254;29;20051;-47
2022/01/05 03:53:15;;;;;;;13.38;2.63;;;3.60;99.90;;;;;;4945763;29;20047;-47
2022/01/05 03:55:43;;;;;;;10.07;1.75;;;3.60;99.90;;;;;;4944983;29;20050;-48
2022/01/05 03:58:13;;;;;;;8.98;2.28;;;3.60;99.90;;;;;;4943950;29;20142;-47
2022/01/05 04:00:43;;;;;;;8.30;3.15;;;3.60;99.90;;;;;;4943828;28;20055;-48
2022/01/05 04:03:09;;;;;;;7.85;1.88;;;3.60;99.90;;;;;;4944674;29;20066;-47
2022/01/05 04:05:37;;;;;;;8.15;1.90;;;3.60;99.90;;;;;;4945025;29;20058;-48
2022/01/05 04:08:03;;;;;;;9.20;2.00;;;3.60;99.90;;;;;;4944239;29;20051;-49
2022/01/05 04:10:29;;;;;;;9.55;2.20;;;3.50;99.90;;;;;;4943989;28;20581;-48
2022/01/05 04:12:54;;;;;;;17.45;3.15;;;3.50;99.90;;;;;;4944677;29;20047;-48
2022/01/05 04:15:20;;;;;;;11.77;2.22;;;3.40;99.90;;;;;;4944457;29;20513;-48
2022/01/05 04:17:46;;;;;;;14.60;3.03;;;3.40;99.90;;;;;;4943027;28;20102;-47
2022/01/05 04:20:13;;;;;;;13.57;2.75;;;3.30;99.90;;;;;;4943791;28;20055;-48
2022/01/05 04:22:40;;;;;;;16.27;3.03;;;3.30;99.90;;;;;;4944391;28;20051;-47
2022/01/05 04:25:06;;;;;;;20.90;2.95;;;3.20;99.90;;;;;;4926535;29;20130;-48
2022/01/05 04:27:32;;;;;;;10.00;2.20;;;3.20;99.90;;;;;;4944199;28;20090;-47
2022/01/05 04:29:58;;;;;;;13.85;3.53;;;3.20;99.90;;;;;;4945280;29;20590;-49
2022/01/05 04:32:24;;;;;;;17.08;3.10;;;3.20;99.90;;;;;;4937114;29;20055;-49
2022/01/05 04:34:50;;;;;;;12.68;2.45;;;3.20;99.90;;;;;;4949489;28;20054;-51
2022/01/05 04:37:15;;;;;;;16.70;2.90;;;3.20;99.90;;;;;;4943897;29;20070;-47
2022/01/05 04:39:41;;;;;;;13.63;3.65;;;3.20;99.90;;;;;;4944160;29;20396;-47
2022/01/05 04:42:07;;;;;;;21.77;3.38;;;3.20;99.90;;;;;;4944468;28;20051;-49
2022/01/05 04:44:36;;;;;;;15.85;3.50;;;3.20;99.90;;;;;;4924961;29;20059;-48
2022/01/05 04:47:02;;;;;;;16.63;3.53;;;3.20;99.90;;;;;;4937902;29;20053;-48
2022/01/05 04:49:27;;;;;;;16.52;3.13;;;3.20;99.90;;;;;;4944243;29;20051;-47
2022/01/05 04:51:53;;;;;;;18.92;3.42;;;3.20;99.90;;;;;;4945428;29;20051;-48
2022/01/05 04:54:19;;;;;;;18.30;3.25;;;3.10;99.90;;;;;;4927526;29;20055;-48
2022/01/05 04:56:44;;;;;;;20.08;2.88;;;3.20;99.90;;;;;;4937582;29;20035;-51
2022/01/05 04:59:10;;;;;;;23.73;3.70;;;3.10;99.90;;;;;;4943596;28;20050;-47
2022/01/05 05:01:37;;;;;;;21.80;3.75;;;3.10;99.90;;;;;;4943907;28;20054;-47
2022/01/05 05:04:03;;;;;;;23.50;4.70;;;3.20;99.90;;;;;;4944090;29;20054;-50
2022/01/05 05:06:29;;;;;;;18.90;4.68;;;3.30;99.90;;;;;;4942437;29;20050;-49
2022/01/05 05:08:55;;;;;;;16.50;4.20;;;3.40;99.90;;;;;;4909915;28;20050;-48
2022/01/05 05:11:20;;;;;;;18.00;3.75;;;3.50;99.90;;;;;;4932885;29;20348;-48
2022/01/05 05:13:46;;;;;;;18.48;3.38;;;3.60;99.90;;;;;;4943300;28;20059;-49
2022/01/05 05:16:12;;;;;;;21.95;4.20;;;3.70;99.90;;;;;;4923052;29;20059;-48
2022/01/05 05:18:37;;;;;;;26.77;4.90;;;3.70;99.90;;;;;;4928808;28;20130;-48
2022/01/05 05:21:04;;;;;;;22.42;5.22;;;3.70;99.90;;;;;;4921905;29;20063;-47
2022/01/05 05:23:29;;;;;;;22.73;3.83;;;3.80;99.90;;;;;;4941460;29;20356;-48
2022/01/05 05:25:55;;;;;;;19.23;3.33;;;3.80;99.90;;;;;;4924971;29;20059;-48
2022/01/05 05:28:21;;;;;;;17.30;3.60;;;3.80;99.90;;;;;;4942857;29;20047;-47
2022/01/05 05:30:47;;;;;;;21.88;3.67;;;3.80;99.90;;;;;;4933606;29;20451;-47
2022/01/05 05:33:12;;;;;;;23.15;3.90;;;3.90;99.90;;;;;;4941440;29;20043;-48
2022/01/05 05:35:41;;;;;;;20.30;3.80;;;4.00;99.90;;;;;;4949719;28;20062;-48
2022/01/05 05:38:07;;;;;;;21.27;3.75;;;4.00;99.90;;;;;;4925132;29;20051;-49
2022/01/05 05:40:33;;;;;;;13.73;2.67;;;4.10;99.90;;;;;;4943028;29;20059;-47
2022/01/05 05:43:00;;;;;;;18.90;4.28;;;4.00;99.90;;;;;;4943214;29;20066;-48
2022/01/05 05:45:26;;;;;;;12.57;3.20;;;4.00;99.90;;;;;;4943955;29;20047;-50
2022/01/05 05:47:52;;;;;;;19.88;3.30;;;4.00;99.90;;;;;;4943185;28;20490;-49
2022/01/05 05:50:18;;;;;;;24.88;5.30;;;4.00;99.90;;;;;;4943532;28;20110;-48
2022/01/05 05:52:44;;;;;;;15.93;2.67;;;3.90;99.90;;;;;;4943330;28;20051;-47
2022/01/05 05:55:10;;;;;;;19.13;3.50;;;3.90;99.90;;;;;;4926884;29;20059;-48
2022/01/05 05:57:35;;;;;;;22.20;3.42;;;3.90;99.90;;;;;;4943918;28;20047;-48
2022/01/05 06:00:02;;;;;;;20.95;3.38;;;3.90;99.90;;;;;;4944362;28;20785;-49
2022/01/05 06:02:27;;;;;;;17.75;3.30;;;3.90;99.90;;;;;;4946936;28;20122;-49
2022/01/05 06:04:53;;;;;;;20.13;3.05;;;3.90;99.90;;;;;;4954197;28;20402;-50
2022/01/05 06:07:19;;;;;;;15.63;3.00;;;3.90;99.90;;;;;;4947962;28;20552;-48
2022/01/05 06:09:44;;;;;;;20.15;3.00;;;3.90;99.90;;;;;;4926632;29;20099;-47
2022/01/05 06:12:10;;;;;;;19.40;3.28;;;4.00;99.90;;;;;;4945584;28;20545;-47
2022/01/05 06:14:36;;;;;;;17.60;2.95;;;4.00;99.90;;;;;;4929499;29;20058;-47
2022/01/05 06:17:02;;;;;;;21.35;3.15;;;4.00;99.90;;;;;;4946299;28;20083;-48
2022/01/05 06:19:27;;;;;;;19.58;3.35;;;4.00;99.90;;;;;;4927085;29;20554;-47
2022/01/05 06:21:53;;;;;;;22.33;3.40;;;4.00;99.90;;;;;;4944560;28;20521;-48
2022/01/05 06:24:19;;;;;;;19.98;3.92;;;4.00;99.90;;;;;;4947350;29;20051;-47
2022/01/05 06:26:45;;;;;;;19.52;3.28;;;4.10;99.90;;;;;;4929326;29;20075;-47
2022/01/05 06:29:13;;;;;;;16.70;2.97;;;4.10;99.90;;;;;;4947625;29;20051;-48
2022/01/05 06:31:40;;;;;;;14.32;2.80;;;4.10;99.90;;;;;;4946823;29;20070;-47
2022/01/05 06:34:06;;;;;;;12.43;2.47;;;4.10;99.90;;;;;;4946636;29;20083;-48
2022/01/05 06:36:32;;;;;;;10.15;2.70;;;4.00;99.90;;;;;;4945757;29;20043;-47
2022/01/05 06:38:58;;;;;;;12.43;2.50;;;3.90;99.90;;;;;;4946708;29;20055;-47
2022/01/05 06:41:23;;;;;;;11.48;2.30;;;3.90;99.90;;;;;;4947057;29;20110;-47
2022/01/05 06:43:49;;;;;;;9.55;1.92;;;3.90;99.90;;;;;;4946191;29;20043;-48
2022/01/05 06:46:15;;;;;;;15.52;3.55;;;3.90;99.90;;;;;;4946127;29;20055;-47
2022/01/05 06:48:41;;;;;;;16.00;3.25;;;3.90;99.90;;;;;;4946856;29;20146;-48
2022/01/05 06:51:06;;;;;;;16.25;3.58;;;3.90;99.90;;;;;;4940997;29;20055;-48
2022/01/05 06:53:32;;;;;;;14.00;3.03;;;4.00;99.90;;;;;;4946021;29;20145;-48
2022/01/05 06:55:58;;;;;;;14.63;3.33;;;4.00;99.90;;;;;;4945865;29;20402;-51
2022/01/05 06:58:23;;;;;;;6.90;1.95;;;4.00;99.90;;;;;;4926855;29;20094;-47
2022/01/05 07:00:49;;;;;;;12.65;2.00;;;4.10;99.90;;;;;;4942062;28;20162;-48
2022/01/05 07:03:15;;;;;;;14.52;1.85;;;4.10;99.90;;;;;;4930912;28;20061;-47
2022/01/05 07:05:41;;;;;;;15.73;2.83;;;4.10;99.90;;;;;;4929722;29;20471;-47
2022/01/05 07:08:07;;;;;;;14.05;3.30;;;4.10;99.90;;;;;;4946664;29;20090;-48
2022/01/05 07:10:33;;;;;;;15.88;2.65;;;4.10;99.90;;;;;;4949750;28;20640;-47
2022/01/05 07:12:58;;;;;;;17.35;2.90;;;4.20;99.90;;;;;;4946515;28;20057;-48
2022/01/05 07:15:25;;;;;;;17.85;2.58;;;4.20;99.90;;;;;;4945312;28;20061;-47
2022/01/05 07:17:51;;;;;;;47.35;5.53;;;4.30;99.90;;;;;;4943994;28;20065;-47
2022/01/05 07:20:18;;;;;;;14.98;2.83;;;4.30;99.90;;;;;;4926935;29;20047;-47
2022/01/05 07:22:43;;;;;;;19.20;3.40;;;4.30;99.90;;;;;;4927812;29;20420;-47
2022/01/05 07:25:10;;;;;;;25.95;4.25;;;4.40;99.90;;;;;;4945686;28;20049;-47
2022/01/05 07:27:36;;;;;;;27.90;4.95;;;4.50;99.90;;;;;;4945027;28;20121;-47
2022/01/05 07:30:04;;;;;;;22.92;4.22;;;4.50;99.90;;;;;;4945740;28;20149;-47
2022/01/05 07:32:30;;;;;;;25.02;3.97;;;4.50;99.90;;;;;;4938576;29;20062;-47
2022/01/05 07:34:56;;;;;;;30.23;4.15;;;4.50;99.90;;;;;;4944787;28;20529;-47
2022/01/05 07:37:22;;;;;;;27.80;4.78;;;4.50;99.90;;;;;;4943208;28;20177;-49
2022/01/05 07:39:48;;;;;;;21.15;3.85;;;4.60;99.90;;;;;;4926772;29;20054;-47
2022/01/05 07:42:15;;;;;;;22.60;3.97;;;4.70;99.90;;;;;;4946801;28;20121;-47
2022/01/05 07:44:42;;;;;;;23.73;4.72;;;4.60;99.90;;;;;;4945888;28;20159;-48
2022/01/05 07:47:08;;;;;;;23.15;4.53;;;4.70;99.90;;;;;;4944798;28;20126;-49
2022/01/05 07:49:34;;;;;;;31.27;4.57;;;4.70;99.90;;;;;;4944119;28;20514;-47
2022/01/05 07:52:00;;;;;;;25.80;4.07;;;4.80;99.90;;;;;;4945623;29;20094;-47
2022/01/05 07:54:26;;;;;;;21.00;2.95;;;4.80;99.90;;;;;;4944114;28;20051;-47
2022/01/05 07:56:51;;;;;;;19.20;3.67;;;4.80;99.90;;;;;;4944164;28;20117;-49
2022/01/05 07:59:17;;;;;;;21.80;3.17;;;4.80;99.90;;;;;;4943703;28;20054;-47
2022/01/05 08:01:43;;;;;;;18.58;2.55;;;4.80;99.90;;;;;;4947312;28;20047;-52
2022/01/05 08:04:09;;;;;;;14.15;2.47;;;4.70;99.90;;;;;;4927541;28;20070;-48
2022/01/05 08:06:34;;;;;;;23.15;3.17;;;4.80;99.90;;;;;;4943183;28;20506;-49
2022/01/05 08:09:00;;;;;;;15.98;2.80;;;4.70;99.90;;;;;;4942660;28;20058;-49
2022/01/05 08:11:29;;;;;;;19.02;3.08;;;4.80;99.90;;;;;;4944601;28;20417;-48
2022/01/05 08:13:55;;;;;;;18.38;3.22;;;4.80;99.90;;;;;;4926846;29;20074;-48
2022/01/05 08:16:21;;;;;;;22.75;3.75;;;4.80;99.90;;;;;;4944914;28;20088;-47
2022/01/05 08:18:46;;;;;;;20.00;4.07;;;4.80;99.90;;;;;;4915791;29;20094;-49
2022/01/05 08:21:12;;;;;;;17.02;3.13;;;4.90;99.90;;;;;;4923459;29;20079;-51
2022/01/05 08:23:38;;;;;;;19.60;3.65;;;4.90;99.90;;;;;;4928815;28;20055;-48
2022/01/05 08:26:05;;;;;;;6.55;1.80;;;4.90;99.90;;;;;;4935598;28;20051;-49
2022/01/05 08:28:32;;;;;;;7.45;1.23;;;4.90;99.90;;;;;;4940503;28;20500;-47
2022/01/05 08:30:59;;;;;;;11.40;1.50;;;4.80;99.90;;;;;;4928227;28;20462;-48
2022/01/05 08:33:25;;;;;;;6.25;1.10;;;4.70;99.90;;;;;;4937163;28;20078;-48
2022/01/05 08:35:51;;;;;;;6.32;1.63;;;4.70;99.90;;;;;;4915960;29;20054;-48
2022/01/05 08:38:17;;;;;;;9.82;1.73;;;4.70;99.90;;;;;;4942158;29;20164;-48
2022/01/05 08:40:43;;;;;;;14.65;1.65;;;4.70;99.90;;;;;;4943786;29;20055;-49
2022/01/05 08:43:10;;;;;;;12.48;2.85;;;4.60;99.90;;;;;;4943595;29;20487;-49
2022/01/05 08:45:37;;;;;;;18.02;2.38;;;4.60;99.90;;;;;;4943712;29;20112;-48
2022/01/05 08:48:03;;;;;;;16.23;2.05;;;4.60;99.90;;;;;;4942696;28;20159;-47
2022/01/05 08:50:31;;;;;;;20.27;3.03;;;4.70;99.90;;;;;;4926261;29;20589;-47
2022/01/05 08:52:58;;;;;;;27.52;3.42;;;4.70;99.90;;;;;;4942109;29;20081;-48
2022/01/05 08:55:32;;;;;;;19.65;3.17;;;4.80;99.90;;;;;;4925375;29;20110;-48
2022/01/05 08:57:58;;;;;;;23.42;3.50;;;4.80;99.90;;;;;;4942210;28;20043;-50
2022/01/05 09:00:24;;;;;;;23.67;5.07;;;5.00;99.90;;;;;;4925490;29;20055;-48
2022/01/05 09:02:50;;;;;;;13.18;2.60;;;5.00;99.90;;;;;;4943205;29;20093;-49
2022/01/05 09:05:17;;;;;;;15.95;2.83;;;5.10;99.90;;;;;;4922955;28;20158;-48
2022/01/05 09:07:43;;;;;;;16.45;2.63;;;5.10;99.90;;;;;;4907302;29;20142;-48
2022/01/05 09:10:09;;;;;;;19.98;2.75;;;5.20;99.90;;;;;;4924941;29;20169;-48
2022/01/05 09:12:35;;;;;;;20.58;3.95;;;5.20;99.90;;;;;;4943437;28;20086;-47
2022/01/05 09:15:02;;;;;;;16.92;4.05;;;5.10;99.90;;;;;;4939026;28;20043;-48
2022/01/05 09:17:28;;;;;;;22.45;4.38;;;5.20;99.90;;;;;;4943873;29;20067;-48
2022/01/05 09:19:54;;;;;;;20.50;4.07;;;5.20;99.90;;;;;;4944013;29;20117;-49
2022/01/05 09:22:21;;;;;;;22.88;3.80;;;5.30;99.90;;;;;;4923854;29;20102;-49
2022/01/05 09:24:47;;;;;;;19.67;4.15;;;5.30;99.90;;;;;;4943934;28;20240;-48
2022/01/05 09:27:13;;;;;;;24.13;5.15;;;5.30;99.90;;;;;;4929872;29;20797;-47
2022/01/05 09:29:40;;;;;;;35.42;5.57;;;5.40;99.90;;;;;;4945944;28;20103;-49
2022/01/05 09:32:08;;;;;;;23.02;3.70;;;5.40;99.90;;;;;;4934011;29;20051;-47
2022/01/05 09:34:36;;;;;;;25.63;4.10;;;5.50;99.90;;;;;;4947374;28;20457;-49
2022/01/05 09:37:09;;;;;;;30.52;4.75;;;5.50;99.90;;;;;;4935629;29;20584;-47
2022/01/05 09:42:19;;;;;;;26.38;5.38;;;5.60;99.90;;;;;;4945399;28;20059;-47
2022/01/05 09:44:48;;;;;;;25.08;3.40;;;5.60;99.90;;;;;;4945962;28;20050;-50
2022/01/05 09:47:38;;;;;;;22.23;4.35;;;5.60;99.90;;;;;;4946863;29;20070;-48
2022/01/05 09:50:07;;;;;;;21.67;3.75;;;5.60;99.90;;;;;;4934733;29;20055;-51
2022/01/05 09:52:34;;;;;;;21.70;3.60;;;5.70;99.90;;;;;;4928890;29;20050;-49
2022/01/05 09:55:01;;;;;;;27.33;4.45;;;5.80;99.90;;;;;;4946463;29;20190;-49
2022/01/05 09:57:28;;;;;;;26.90;4.22;;;5.80;99.90;;;;;;4946306;28;20055;-48
2022/01/05 09:59:56;;;;;;;26.70;3.80;;;5.80;99.90;;;;;;4925856;29;20523;-47
2022/01/05 10:02:24;;;;;;;22.80;4.03;;;5.80;99.90;;;;;;4941028;28;20046;-47
2022/01/05 10:04:50;;;;;;;22.33;3.75;;;5.80;99.90;;;;;;4923522;29;20067;-48
2022/01/05 10:07:16;;;;;;;21.02;4.45;;;5.90;99.90;;;;;;4950001;28;20405;-48
2022/01/05 10:09:43;;;;;;;22.02;4.55;;;5.90;99.90;;;;;;4955764;28;20047;-47
2022/01/05 10:12:10;;;;;;;19.13;3.97;;;5.80;99.90;;;;;;4945695;28;20075;-49
2022/01/05 10:14:45;;;;;;;19.38;3.60;;;5.90;99.90;;;;;;4920168;29;20079;-49
2022/01/05 10:17:13;;;;;;;27.15;4.13;;;5.90;99.90;;;;;;4945272;29;20061;-49
2022/01/05 10:19:41;;;;;;;26.27;5.47;;;5.90;99.90;;;;;;4929366;29;20470;-48
2022/01/05 10:22:42;;;;;;;25.80;3.90;;;5.90;99.90;;;;;;4928274;29;20069;-47
2022/01/05 10:25:21;;;;;;;27.52;4.13;;;5.80;99.90;;;;;;4946436;29;20087;-48
2022/01/05 10:27:58;;;;;;;21.75;3.92;;;5.70;99.90;;;;;;4945920;29;20047;-51
2022/01/05 10:30:34;;;;;;;19.45;3.78;;;5.70;99.90;;;;;;4935598;29;20051;-50
2022/01/05 10:33:01;;;;;;;20.17;3.92;;;5.70;99.90;;;;;;4927794;29;20502;-48
2022/01/05 10:35:27;;;;;;;24.40;4.57;;;5.60;99.90;;;;;;4949450;28;20054;-49
2022/01/05 10:37:59;;;;;;;27.92;4.75;;;5.60;99.90;;;;;;4943987;28;20751;-48
2022/01/05 10:40:25;;;;;;;20.60;3.40;;;5.50;99.90;;;;;;4940831;29;20149;-52
2022/01/05 10:42:56;;;;;;;24.58;4.07;;;5.50;99.90;;;;;;4943014;28;20609;-48
2022/01/05 10:45:42;;;;;;;21.05;4.13;;;5.50;99.90;;;;;;4936763;28;20055;-47
2022/01/05 10:48:17;;;;;;;27.75;5.10;;;5.50;99.90;;;;;;4941881;28;20063;-49
2022/01/05 10:50:44;;;;;;;24.35;4.35;;;5.60;99.90;;;;;;4939859;28;20111;-49
2022/01/05 10:53:21;;;;;;;17.83;3.38;;;5.70;99.90;;;;;;4914425;29;20157;-49
2022/01/05 10:55:47;;;;;;;27.50;4.22;;;5.70;99.90;;;;;;4937094;28;20502;-48
2022/01/05 10:58:15;;;;;;;15.35;2.70;;;5.80;99.90;;;;;;4938171;29;20051;-50
2022/01/05 11:00:55;;;;;;;20.75;3.35;;;5.80;99.90;;;;;;4940645;29;20083;-49
2022/01/05 11:03:43;;;;;;;11.20;2.28;;;5.80;99.90;;;;;;4935188;29;20548;-51
2022/01/05 11:06:14;;;;;;;18.50;2.40;;;5.80;99.90;;;;;;4938459;28;20068;-47
2022/01/05 11:08:45;;;;;;;16.95;2.88;;;5.80;99.90;;;;;;4933778;28;20550;-49
2022/01/05 11:11:41;;;;;;;16.35;2.70;;;5.80;99.90;;;;;;4937691;28;20293;-48
2022/01/05 11:14:29;;;;;;;17.63;3.00;;;5.90;99.90;;;;;;4934844;28;20049;-48
2022/01/05 11:16:55;;;;;;;19.13;3.40;;;6.00;99.90;;;;;;4935674;28;20414;-49
2022/01/05 11:19:37;;;;;;;17.83;3.25;;;6.00;99.90;;;;;;4935775;28;20169;-48
2022/01/05 11:22:15;;;;;;;20.23;4.18;;;6.10;99.90;;;;;;4938428;28;20047;-48
2022/01/05 11:24:51;;;;;;;15.90;3.60;;;6.20;99.90;;;;;;4932998;28;20458;-50
2022/01/05 11:27:28;;;;;;;20.10;3.00;;;6.30;99.90;;;;;;4917390;29;20122;-48
2022/01/05 11:29:55;;;;;;;25.40;3.63;;;6.40;99.90;;;;;;4937255;28;20090;-49
2022/01/05 11:32:25;;;;;;;20.75;3.25;;;6.40;99.90;;;;;;4936830;29;20475;-49
2022/01/05 11:34:52;;;;;;;21.75;3.75;;;6.40;99.90;;;;;;4937971;28;20055;-48
2022/01/05 11:37:18;;;;;;;21.88;3.97;;;6.30;99.90;;;;;;4920819;29;20099;-48
2022/01/05 11:39:49;;;;;;;20.67;3.63;;;6.30;99.90;;;;;;4934149;29;20893;-49
2022/01/05 11:42:28;;;;;;;23.63;3.92;;;6.20;99.90;;;;;;4932189;29;20051;-48
2022/01/05 11:44:54;;;;;;;17.10;3.25;;;6.20;99.90;;;;;;4933087;29;20055;-48
2022/01/05 11:47:25;;;;;;;22.88;3.40;;;6.10;99.90;;;;;;4932145;29;20047;-49
2022/01/05 11:49:52;;;;;;;16.63;3.35;;;6.10;99.90;;;;;;4940511;29;20043;-51
2022/01/05 11:52:59;;;;;;;14.27;2.92;;;6.10;99.90;;;;;;4937487;29;20073;-48
2022/01/05 11:55:27;;;;;;;15.85;4.13;;;6.20;99.90;;;;;;4940449;28;20106;-49
2022/01/05 11:58:18;;;;;;;11.82;2.25;;;6.30;99.90;;;;;;4944884;29;20541;-50
2022/01/05 12:00:47;;;;;;;16.58;3.42;;;6.30;99.90;;;;;;4946106;29;20075;-48
2022/01/05 12:03:33;;;;;;;11.10;3.40;;;6.30;99.90;;;;;;4926553;29;20059;-49
2022/01/05 12:06:08;;;;;;;11.75;2.88;;;6.30;99.90;;;;;;4944104;28;20418;-48
2022/01/05 12:08:48;;;;;;;16.15;2.70;;;6.30;99.90;;;;;;4944836;29;20051;-48
2022/01/05 12:11:33;;;;;;;12.98;2.20;;;6.20;99.90;;;;;;4945128;29;20122;-48
2022/01/05 12:14:04;;;;;;;11.82;2.60;;;6.30;99.90;;;;;;4926194;29;20047;-47
2022/01/05 12:16:59;;;;;;;9.07;2.17;;;6.20;99.90;;;;;;4943582;29;20422;-48
2022/01/05 12:19:25;;;;;;;12.52;2.50;;;6.30;99.90;;;;;;4926702;29;20059;-51
2022/01/05 12:21:54;;;;;;;20.25;3.05;;;6.40;99.90;;;;;;4944573;29;20054;-48
2022/01/05 12:24:21;;;;;;;20.10;3.67;;;6.60;99.90;;;;;;4944241;29;20054;-48
2022/01/05 12:27:18;;;;;;;6.85;1.90;;;6.70;99.90;;;;;;4943630;29;20094;-50
2022/01/05 12:29:46;;;;;;;7.18;1.30;;;6.70;99.90;;;;;;4944386;29;20522;-48
2022/01/05 12:32:30;;;;;;;8.00;1.13;;;6.60;99.90;;;;;;4926469;29;20078;-47
2022/01/05 12:34:59;;;;;;;4.82;0.60;;;6.40;99.90;;;;;;4943957;29;20047;-47
2022/01/05 12:37:46;;;;;;;3.63;0.80;;;6.30;99.90;;;;;;4943898;29;20046;-50
2022/01/05 12:40:27;;;;;;;6.65;1.17;;;6.10;99.90;;;;;;4944146;29;20526;-49
2022/01/05 12:43:08;;;;;;;5.07;1.02;;;6.00;99.90;;;;;;4940742;29;20093;-48
2022/01/05 12:45:43;;;;;;;7.88;1.75;;;6.00;99.90;;;;;;4933662;29;20078;-49
2022/01/05 12:48:37;;;;;;;6.57;1.50;;;6.00;99.90;;;;;;4936886;28;20076;-47
2022/01/05 12:51:20;;;;;;;;;;;6.00;99.90;;;;;;4922600;28;20086;-48
2022/01/05 12:53:52;;;;;;;14.27;2.30;;;6.00;99.90;;;;;;4933131;28;20290;-50
2022/01/05 12:56:23;;;;;;;16.33;4.25;;;6.10;99.90;;;;;;4919678;29;20138;-48